Villa El Encanto, Puerto Rico
Current Conditions -  °F | °C
As of 12:50 PM on Sunday 21 Dec 2014 (Local Time) from TJPS Reporting Station
Few Clouds Few Clouds  
Wind Chill: 32°   Ceiling: Unl
Heat Index: 34°   Visibility: 10mi
Dew Point: 20°   Wind: 12mph
Humidity: 49%   Direction: 30°NNE
Pressure: 29.99"   Gusts: NA
Location:  18.0561°N, 66.5063°W
Report Text: TJPS 211650Z 03010KT 10SM FEW020 FEW050 32/20 A2999
Loading
Personal Weather Stations






























Interactive Weather Map New forecast layout! Learn more

10-Day Weather Forecast

Advertisements
Track Severe Weather on mobile